Time;durP1;ratioP1;P1;durP2;ratioP2;P2;SDS_P1;SDS_P2;PMS_P1;PMS_P2;Temp;Humidity;BMP_temperature;BMP_pressure;BME280_temperature;BME280_humidity;BME280_pressure;Samples;Min_cycle;Max_cycle;Signal;HPM_P1;HPM_P2
2021/04/01 00:02:10;;;;;;;10.15;6.47;;;;;;;;;;5072118;28;20269;-62
2021/04/01 00:04:36;;;;;;;11.07;6.80;;;;;;;;;;5072009;28;20217;-62
2021/04/01 00:07:02;;;;;;;12.03;6.80;;;;;;;;;;5082978;28;20191;-62
2021/04/01 00:09:28;;;;;;;11.80;6.07;;;;;;;;;;5079111;28;20278;-61
2021/04/01 00:11:54;;;;;;;12.73;6.63;;;;;;;;;;5082754;28;20189;-61
2021/04/01 00:14:23;;;;;;;10.77;7.17;;;;;;;;;;5072511;28;20215;-62
2021/04/01 00:16:49;;;;;;;13.33;6.97;;;;;;;;;;5075485;28;20194;-62
2021/04/01 00:19:15;;;;;;;13.97;7.33;;;;;;;;;;5085462;28;20254;-63
2021/04/01 00:21:41;;;;;;;13.73;8.03;;;;;;;;;;5080053;28;20228;-63
2021/04/01 00:24:07;;;;;;;10.53;7.50;;;;;;;;;;5076209;28;20582;-62
2021/04/01 00:26:33;;;;;;;16.93;7.93;;;;;;;;;;5081740;28;20243;-62
2021/04/01 00:28:59;;;;;;;10.63;7.60;;;;;;;;;;5079980;28;20182;-61
2021/04/01 00:31:25;;;;;;;12.43;8.45;;;;;;;;;;5077383;28;20270;-62
2021/04/01 00:33:51;;;;;;;12.07;7.43;;;;;;;;;;5084812;28;20214;-62
2021/04/01 00:36:17;;;;;;;12.53;6.93;;;;;;;;;;5075304;28;20184;-62
2021/04/01 00:38:43;;;;;;;8.23;6.50;;;;;;;;;;5081285;28;20186;-61
2021/04/01 00:41:10;;;;;;;13.23;6.93;;;;;;;;;;5082920;28;20243;-64
2021/04/01 00:43:36;;;;;;;10.67;7.17;;;;;;;;;;5078174;28;20187;-63
2021/04/01 00:46:02;;;;;;;10.23;7.00;;;;;;;;;;5083508;28;20906;-62
2021/04/01 00:48:28;;;;;;;12.77;7.33;;;;;;;;;;5078266;28;20238;-62
2021/04/01 00:50:53;;;;;;;16.83;7.47;;;;;;;;;;5085934;28;20185;-62
2021/04/01 00:53:19;;;;;;;11.97;7.67;;;;;;;;;;5081578;28;20205;-63
2021/04/01 00:55:45;;;;;;;12.73;7.53;;;;;;;;;;5084396;28;20556;-62
2021/04/01 00:58:12;;;;;;;10.83;7.57;;;;;;;;;;5078366;28;20183;-63
2021/04/01 01:00:38;;;;;;;12.17;7.83;;;;;;;;;;5105587;28;20193;-63
2021/04/01 01:03:04;;;;;;;14.53;8.17;;;;;;;;;;5093156;28;20186;-63
2021/04/01 01:05:31;;;;;;;14.43;8.40;;;;;;;;;;5077337;28;20206;-63
2021/04/01 01:07:57;;;;;;;11.17;7.37;;;;;;;;;;5077131;28;20503;-60
2021/04/01 01:10:26;;;;;;;9.80;7.97;;;;;;;;;;5069995;28;20764;-63
2021/04/01 01:12:53;;;;;;;11.37;7.30;;;;;;;;;;5080043;28;20178;-62
2021/04/01 01:15:19;;;;;;;9.80;7.67;;;;;;;;;;5075911;28;20198;-62
2021/04/01 01:17:45;;;;;;;17.57;7.70;;;;;;;;;;5080808;28;20269;-61
2021/04/01 01:20:11;;;;;;;11.90;7.07;;;;;;;;;;5076580;28;20186;-61
2021/04/01 01:22:38;;;;;;;13.30;6.80;;;;;;;;;;5081164;28;20187;-61
2021/04/01 01:25:13;;;;;;;11.90;7.33;;;;;;;;;;5078187;28;20214;-63
2021/04/01 01:27:39;;;;;;;13.70;7.33;;;;;;;;;;5084186;28;20185;-62
2021/04/01 01:30:07;;;;;;;13.67;7.07;;;;;;;;;;5083602;28;20183;-61
2021/04/01 01:32:37;;;;;;;9.07;6.93;;;;;;;;;;5072274;28;20183;-61
2021/04/01 01:35:06;;;;;;;10.27;7.03;;;;;;;;;;5081170;28;20237;-61
2021/04/01 01:37:32;;;;;;;9.23;7.20;;;;;;;;;;5081727;28;20183;-61
2021/04/01 01:39:58;;;;;;;11.47;7.10;;;;;;;;;;5079110;28;20693;-62
2021/04/01 01:42:24;;;;;;;10.63;6.87;;;;;;;;;;5086116;28;20174;-61
2021/04/01 01:44:50;;;;;;;8.23;7.10;;;;;;;;;;5079987;28;20202;-63
2021/04/01 01:47:16;;;;;;;12.20;7.47;;;;;;;;;;5089776;28;20640;-62
2021/04/01 01:49:42;;;;;;;11.50;7.50;;;;;;;;;;5084932;28;20265;-62
2021/04/01 01:52:08;;;;;;;10.07;6.83;;;;;;;;;;5076090;28;20688;-62
2021/04/01 01:54:34;;;;;;;11.83;7.63;;;;;;;;;;5081526;28;20293;-62
2021/04/01 01:57:00;;;;;;;14.07;7.50;;;;;;;;;;5075998;28;20202;-61
2021/04/01 01:59:29;;;;;;;12.40;7.90;;;;;;;;;;5081779;28;20221;-62
2021/04/01 02:01:55;;;;;;;12.93;7.40;;;;;;;;;;5085574;28;20297;-61
2021/04/01 02:04:21;;;;;;;12.83;7.37;;;;;;;;;;5076374;28;20744;-62
2021/04/01 02:06:47;;;;;;;9.83;7.13;;;;;;;;;;5082206;28;20194;-62
2021/04/01 02:09:13;;;;;;;12.10;8.37;;;;;;;;;;5087811;28;20194;-61
2021/04/01 02:11:39;;;;;;;10.37;7.10;;;;;;;;;;5080684;28;20182;-62
2021/04/01 02:14:05;;;;;;;12.13;7.23;;;;;;;;;;5076905;28;20221;-62
2021/04/01 02:16:31;;;;;;;11.90;7.70;;;;;;;;;;5078295;28;20704;-62
2021/04/01 02:18:57;;;;;;;8.73;7.43;;;;;;;;;;5081862;28;20218;-62
2021/04/01 02:21:24;;;;;;;9.43;7.50;;;;;;;;;;5089765;28;20426;-64
2021/04/01 02:23:50;;;;;;;10.23;7.50;;;;;;;;;;5088976;28;20198;-62
2021/04/01 02:26:16;;;;;;;9.87;6.87;;;;;;;;;;5089598;28;20202;-62
2021/04/01 02:28:42;;;;;;;11.50;7.80;;;;;;;;;;5083490;28;20273;-61
2021/04/01 02:31:09;;;;;;;10.53;7.60;;;;;;;;;;5079995;28;20258;-61
2021/04/01 02:33:36;;;;;;;10.53;7.40;;;;;;;;;;5084085;28;20696;-62
2021/04/01 02:36:03;;;;;;;9.27;6.27;;;;;;;;;;5081946;28;20178;-62
2021/04/01 02:38:29;;;;;;;10.27;6.70;;;;;;;;;;5074889;27;20190;-61
2021/04/01 02:40:55;;;;;;;8.77;6.33;;;;;;;;;;5080724;28;20179;-61
2021/04/01 02:45:54;;;;;;;10.07;6.70;;;;;;;;;;5082197;28;20191;-62
2021/04/01 02:48:20;;;;;;;11.90;6.83;;;;;;;;;;5084684;28;20537;-61
2021/04/01 02:50:46;;;;;;;14.63;7.27;;;;;;;;;;5079501;28;20710;-62
2021/04/01 02:53:12;;;;;;;15.00;6.30;;;;;;;;;;5081347;28;20186;-61
2021/04/01 02:55:38;;;;;;;10.53;7.47;;;;;;;;;;5087164;28;20206;-61
2021/04/01 02:58:04;;;;;;;11.30;7.37;;;;;;;;;;5077398;28;20308;-62
2021/04/01 03:00:32;;;;;;;12.40;7.17;;;;;;;;;;5088606;28;20178;-62
2021/04/01 03:03:04;;;;;;;9.63;7.60;;;;;;;;;;5079207;28;20318;-62
2021/04/01 03:05:30;;;;;;;9.80;7.27;;;;;;;;;;5074400;28;20214;-61
2021/04/01 03:07:56;;;;;;;9.87;7.63;;;;;;;;;;5079936;28;20243;-62
2021/04/01 03:10:22;;;;;;;10.00;7.10;;;;;;;;;;5078021;28;20259;-61
2021/04/01 03:12:48;;;;;;;13.73;7.20;;;;;;;;;;5076548;28;20646;-62
2021/04/01 03:15:14;;;;;;;11.43;6.83;;;;;;;;;;5083153;28;20292;-62
2021/04/01 03:17:41;;;;;;;10.43;7.17;;;;;;;;;;5081702;28;20190;-62
2021/04/01 03:20:07;;;;;;;13.90;7.20;;;;;;;;;;5079914;28;20203;-61
2021/04/01 03:22:33;;;;;;;12.77;7.27;;;;;;;;;;5081353;28;20194;-61
2021/04/01 03:24:59;;;;;;;11.63;7.93;;;;;;;;;;5083583;28;20218;-61
2021/04/01 03:27:25;;;;;;;11.53;7.17;;;;;;;;;;5079300;28;20194;-61
2021/04/01 03:30:07;;;;;;;12.50;7.27;;;;;;;;;;5087759;28;20182;-62
2021/04/01 03:32:34;;;;;;;12.17;7.97;;;;;;;;;;5081451;28;20202;-62
2021/04/01 03:35:00;;;;;;;15.80;8.10;;;;;;;;;;5086742;28;20269;-62
2021/04/01 03:37:26;;;;;;;8.53;7.37;;;;;;;;;;5075538;28;20179;-62
2021/04/01 03:39:53;;;;;;;9.77;7.50;;;;;;;;;;5083008;28;20178;-62
2021/04/01 03:42:19;;;;;;;14.80;8.23;;;;;;;;;;5076912;28;20213;-62
2021/04/01 03:44:45;;;;;;;10.37;7.80;;;;;;;;;;5082384;28;20210;-62
2021/04/01 03:47:11;;;;;;;13.60;7.80;;;;;;;;;;5076303;28;20186;-62
2021/04/01 03:49:38;;;;;;;12.60;7.90;;;;;;;;;;5082708;28;20191;-62
2021/04/01 03:52:04;;;;;;;19.23;7.97;;;;;;;;;;5082019;28;20191;-61
2021/04/01 03:54:30;;;;;;;14.03;8.27;;;;;;;;;;5081550;28;20859;-62
2021/04/01 03:56:56;;;;;;;12.60;7.77;;;;;;;;;;5079435;28;20214;-62
2021/04/01 03:59:26;;;;;;;15.47;8.07;;;;;;;;;;5080560;28;20247;-62
2021/04/01 04:02:05;;;;;;;17.70;7.93;;;;;;;;;;5084881;28;20182;-62
2021/04/01 04:15:11;;;;;;;20.20;8.67;;;;;;;;;;5058740;28;20222;-62
2021/04/01 04:17:38;;;;;;;14.90;8.67;;;;;;;;;;5081819;28;20258;-63
2021/04/01 04:20:05;;;;;;;15.77;7.87;;;;;;;;;;5084249;28;20634;-62
2021/04/01 04:22:31;;;;;;;15.40;8.60;;;;;;;;;;5081048;28;20542;-61
2021/04/01 04:24:57;;;;;;;14.63;8.20;;;;;;;;;;5081654;28;20240;-61
2021/04/01 04:30:02;;;;;;;9.77;8.17;;;;;;;;;;5081205;28;20656;-63
2021/04/01 04:32:28;;;;;;;13.43;8.37;;;;;;;;;;5087048;28;20249;-62
2021/04/01 04:34:54;;;;;;;19.87;8.00;;;;;;;;;;5082263;28;20257;-62
2021/04/01 04:37:21;;;;;;;12.83;7.97;;;;;;;;;;5079525;28;20928;-61
2021/04/01 04:39:47;;;;;;;14.60;7.87;;;;;;;;;;5079031;28;20329;-60
2021/04/01 04:42:13;;;;;;;9.93;7.30;;;;;;;;;;5082035;28;20213;-64
2021/04/01 04:44:39;;;;;;;13.60;8.80;;;;;;;;;;5078172;28;20641;-63
2021/04/01 04:47:05;;;;;;;14.13;8.60;;;;;;;;;;5072946;28;20220;-64
2021/04/01 04:49:31;;;;;;;13.03;7.80;;;;;;;;;;5073312;28;20186;-62
2021/04/01 04:51:58;;;;;;;12.87;7.30;;;;;;;;;;5077046;28;20606;-63
2021/04/01 04:54:28;;;;;;;12.93;8.33;;;;;;;;;;5079969;28;20221;-63
2021/04/01 04:56:55;;;;;;;11.43;7.93;;;;;;;;;;5086405;28;20189;-63
2021/04/01 04:59:32;;;;;;;13.53;8.43;;;;;;;;;;5091305;28;20708;-64
2021/04/01 05:04:48;;;;;;;13.00;7.97;;;;;;;;;;5083263;28;20217;-62
2021/04/01 05:07:14;;;;;;;11.97;8.17;;;;;;;;;;5090624;28;20212;-62
2021/04/01 05:09:40;;;;;;;11.27;9.53;;;;;;;;;;5085303;28;20702;-63
2021/04/01 05:12:06;;;;;;;13.13;8.17;;;;;;;;;;5081436;28;20596;-62
2021/04/01 05:14:32;;;;;;;15.90;8.43;;;;;;;;;;5078566;28;20206;-63
2021/04/01 05:16:58;;;;;;;7.37;6.57;;;;;;;;;;5086847;28;20182;-62
2021/04/01 05:19:26;;;;;;;16.03;7.63;;;;;;;;;;5080091;28;20269;-62
2021/04/01 05:24:26;;;;;;;17.17;8.57;;;;;;;;;;5086926;28;20222;-63
2021/04/01 05:29:24;;;;;;;10.63;7.27;;;;;;;;;;5078958;28;20190;-61
2021/04/01 05:31:50;;;;;;;10.83;8.10;;;;;;;;;;5080629;28;20182;-63
2021/04/01 05:34:17;;;;;;;9.63;6.43;;;;;;;;;;5087773;28;20237;-63
2021/04/01 05:36:45;;;;;;;10.63;7.10;;;;;;;;;;5082382;28;20186;-62
2021/04/01 05:39:20;;;;;;;11.00;6.30;;;;;;;;;;5081424;28;20194;-63
2021/04/01 05:41:51;;;;;;;9.07;6.20;;;;;;;;;;5080867;28;20195;-63
2021/04/01 06:05:26;;;;;;;19.37;7.27;;;;;;;;;;5059069;28;20340;-63
2021/04/01 06:07:54;;;;;;;21.37;9.13;;;;;;;;;;5059779;28;20199;-62
2021/04/01 06:10:21;;;;;;;16.43;7.80;;;;;;;;;;5051357;28;20187;-63
2021/04/01 06:12:48;;;;;;;15.33;8.47;;;;;;;;;;5052182;28;20278;-62
2021/04/01 06:15:14;;;;;;;17.53;8.90;;;;;;;;;;5054367;28;20889;-63
2021/04/01 06:17:47;;;;;;;23.13;9.13;;;;;;;;;;5060401;28;20688;-62
2021/04/01 06:20:14;;;;;;;11.07;7.60;;;;;;;;;;5057395;28;20229;-63
2021/04/01 06:22:40;;;;;;;13.43;7.37;;;;;;;;;;5054388;28;20658;-63
2021/04/01 06:25:15;;;;;;;14.17;6.70;;;;;;;;;;5053227;28;20262;-63
2021/04/01 06:27:48;;;;;;;18.27;6.30;;;;;;;;;;5067566;28;20374;-63
2021/04/01 06:32:46;;;;;;;11.80;6.53;;;;;;;;;;5071020;28;20202;-64
2021/04/01 06:35:21;;;;;;;14.87;6.67;;;;;;;;;;5077546;28;20234;-62
2021/04/01 06:40:37;;;;;;;11.43;7.30;;;;;;;;;;5083529;28;20211;-63
2021/04/01 06:43:07;;;;;;;13.77;7.03;;;;;;;;;;5079992;28;20261;-61
2021/04/01 06:45:33;;;;;;;13.83;6.80;;;;;;;;;;5088380;28;20288;-62
2021/04/01 06:47:59;;;;;;;9.47;6.50;;;;;;;;;;5081979;28;20183;-63
2021/04/01 06:50:36;;;;;;;11.90;6.53;;;;;;;;;;5078368;28;20183;-62
2021/04/01 06:55:42;;;;;;;21.45;7.38;;;;;;;;;;5086686;28;21150;-64
2021/04/01 06:58:24;;;;;;;16.92;6.88;;;;;;;;;;5080818;28;20193;-64
2021/04/01 07:03:26;;;;;;;10.18;6.20;;;;;;;;;;5085012;28;20182;-62
2021/04/01 07:06:05;;;;;;;10.75;6.22;;;;;;;;;;5074259;28;20240;-63
2021/04/01 07:11:34;;;;;;;11.55;6.00;;;;;;;;;;5044133;28;20693;-62
2021/04/01 07:14:11;;;;;;;10.13;6.22;;;;;;;;;;5044247;28;20632;-64
2021/04/01 07:16:58;;;;;;;11.85;6.50;;;;;;;;;;5027690;28;20662;-63
2021/04/01 07:46:47;;;;;;;14.00;5.72;;;;;;;;;;5043332;28;20327;-65
2021/04/01 07:49:17;;;;;;;13.73;6.07;;;;;;;;;;5077572;28;20194;-63
2021/04/01 07:51:57;;;;;;;17.17;5.88;;;;;;;;;;5075141;28;20677;-63
2021/04/01 07:54:28;;;;;;;18.50;5.95;;;;;;;;;;5081695;28;20233;-63
2021/04/01 07:57:26;;;;;;;18.60;6.55;;;;;;;;;;5079021;28;20178;-64
2021/04/01 07:59:58;;;;;;;12.52;5.97;;;;;;;;;;5080921;28;20215;-63
2021/04/01 08:05:08;;;;;;;8.43;5.05;;;;;;;;;;5074692;28;20279;-63
2021/04/01 08:07:38;;;;;;;11.50;5.28;;;;;;;;;;5083347;28;20544;-63
2021/04/01 08:10:06;;;;;;;9.63;5.47;;;;;;;;;;5079073;28;20182;-62
2021/04/01 08:12:37;;;;;;;11.05;5.55;;;;;;;;;;5083203;28;20190;-63
2021/04/01 08:15:07;;;;;;;8.43;5.85;;;;;;;;;;5075609;28;20225;-63
2021/04/01 08:17:44;;;;;;;11.40;5.32;;;;;;;;;;5077532;28;20653;-63
2021/04/01 08:20:11;;;;;;;20.20;6.07;;;;;;;;;;5074266;28;20594;-62
2021/04/01 08:22:46;;;;;;;12.55;4.90;;;;;;;;;;5077730;28;20175;-62
2021/04/01 08:25:15;;;;;;;9.98;4.50;;;;;;;;;;5076154;28;20352;-62
2021/04/01 08:35:39;;;;;;;16.98;5.28;;;;;;;;;;5076920;28;20197;-64
2021/04/01 08:40:34;;;;;;;10.07;5.25;;;;;;;;;;5074468;28;20274;-63
2021/04/01 08:43:08;;;;;;;7.28;4.85;;;;;;;;;;5076899;28;20167;-65
2021/04/01 08:45:55;;;;;;;9.70;4.40;;;;;;;;;;5068836;28;20291;-63
2021/04/01 08:48:26;;;;;;;11.52;4.40;;;;;;;;;;5070960;28;20236;-63
2021/04/01 08:50:58;;;;;;;7.97;4.35;;;;;;;;;;5075013;28;20209;-63
2021/04/01 08:53:33;;;;;;;12.40;4.43;;;;;;;;;;5081024;28;20185;-66
2021/04/01 08:56:20;;;;;;;16.05;4.43;;;;;;;;;;5080552;28;20177;-62
2021/04/01 08:59:22;;;;;;;9.13;4.10;;;;;;;;;;5083523;28;20175;-63
2021/04/01 09:01:52;;;;;;;14.50;4.50;;;;;;;;;;5063031;28;20208;-63
2021/04/01 09:04:21;;;;;;;8.85;4.45;;;;;;;;;;5054722;28;20231;-65
2021/04/01 09:06:47;;;;;;;10.25;4.65;;;;;;;;;;5053893;28;20200;-63
2021/04/01 09:09:15;;;;;;;8.30;4.32;;;;;;;;;;5053543;28;20920;-63
2021/04/01 09:11:53;;;;;;;10.88;4.28;;;;;;;;;;5055683;28;20179;-63
2021/04/01 09:14:32;;;;;;;13.18;4.13;;;;;;;;;;5059361;28;20772;-63
2021/04/01 09:17:12;;;;;;;10.07;4.20;;;;;;;;;;5055851;28;20187;-64
2021/04/01 09:19:39;;;;;;;8.10;3.63;;;;;;;;;;5058765;28;20229;-63
2021/04/01 09:22:26;;;;;;;10.30;4.35;;;;;;;;;;5055619;28;20273;-63
2021/04/01 09:24:57;;;;;;;9.32;3.97;;;;;;;;;;5055017;28;20215;-63
2021/04/01 09:27:23;;;;;;;6.43;3.47;;;;;;;;;;5057591;28;20617;-63
2021/04/01 09:29:49;;;;;;;13.05;4.13;;;;;;;;;;5063519;28;20198;-63
2021/04/01 09:32:15;;;;;;;9.77;3.72;;;;;;;;;;5052893;28;20282;-63
2021/04/01 09:34:44;;;;;;;7.57;3.78;;;;;;;;;;5065643;28;20226;-63
2021/04/01 09:37:17;;;;;;;13.90;4.40;;;;;;;;;;5081361;28;20201;-63
2021/04/01 09:39:43;;;;;;;10.57;4.60;;;;;;;;;;5083413;28;20208;-63
2021/04/01 09:42:11;;;;;;;10.38;3.67;;;;;;;;;;5071705;28;20193;-61
2021/04/01 09:44:48;;;;;;;7.93;4.35;;;;;;;;;;5081159;28;20190;-63
2021/04/01 09:47:18;;;;;;;13.20;4.45;;;;;;;;;;5076376;28;20260;-63
2021/04/01 09:49:50;;;;;;;13.65;4.07;;;;;;;;;;5072468;28;20178;-62
2021/04/01 09:52:16;;;;;;;13.35;4.40;;;;;;;;;;5075225;28;20194;-62
2021/04/01 09:54:46;;;;;;;8.75;4.00;;;;;;;;;;5077671;28;20211;-62
2021/04/01 09:57:12;;;;;;;11.30;3.45;;;;;;;;;;5077066;28;20212;-62
2021/04/01 10:02:07;;;;;;;8.68;3.58;;;;;;;;;;5083527;28;20202;-62
2021/04/01 10:04:35;;;;;;;24.30;5.40;;;;;;;;;;5080608;28;20202;-63
2021/04/01 10:07:12;;;;;;;24.67;5.22;;;;;;;;;;5076962;28;20208;-63
2021/04/01 10:09:48;;;;;;;14.07;4.18;;;;;;;;;;5077903;28;20185;-63
2021/04/01 10:12:16;;;;;;;16.40;4.50;;;;;;;;;;5077862;28;20568;-63
2021/04/01 10:14:48;;;;;;;13.90;4.43;;;;;;;;;;5079817;28;20211;-64
2021/04/01 10:17:14;;;;;;;8.50;4.18;;;;;;;;;;5077917;28;20183;-63
2021/04/01 10:19:40;;;;;;;14.27;3.83;;;;;;;;;;5085734;28;20201;-62
2021/04/01 10:22:07;;;;;;;11.02;4.28;;;;;;;;;;5081216;28;20171;-62
2021/04/01 10:24:36;;;;;;;15.38;3.58;;;;;;;;;;5078901;28;20389;-63
2021/04/01 10:27:21;;;;;;;13.68;4.03;;;;;;;;;;5077687;28;20549;-63
2021/04/01 10:32:15;;;;;;;8.02;3.22;;;;;;;;;;5089211;28;20186;-63
2021/04/01 10:34:53;;;;;;;11.68;3.70;;;;;;;;;;5083218;28;20205;-63
2021/04/01 10:37:20;;;;;;;10.23;3.50;;;;;;;;;;5078396;28;20265;-64
2021/04/01 10:39:46;;;;;;;10.50;3.38;;;;;;;;;;5075237;28;20178;-62
2021/04/01 10:42:13;;;;;;;8.27;3.15;;;;;;;;;;5076058;28;20182;-63
2021/04/01 10:44:40;;;;;;;12.48;3.88;;;;;;;;;;5078553;28;20209;-62
2021/04/01 10:47:08;;;;;;;13.27;3.90;;;;;;;;;;5074133;28;20182;-62
2021/04/01 10:49:36;;;;;;;9.95;3.20;;;;;;;;;;5085860;28;20261;-62
2021/04/01 10:52:02;;;;;;;11.50;3.63;;;;;;;;;;5086164;28;20182;-63
2021/04/01 10:54:35;;;;;;;10.82;3.40;;;;;;;;;;5085306;28;20284;-62
2021/04/01 10:57:03;;;;;;;7.63;3.38;;;;;;;;;;5090550;28;20725;-63
2021/04/01 10:59:40;;;;;;;9.30;3.25;;;;;;;;;;5086053;28;20182;-63
2021/04/01 11:02:13;;;;;;;10.18;3.15;;;;;;;;;;5082685;28;20186;-68
2021/04/01 11:04:40;;;;;;;13.35;3.60;;;;;;;;;;5079210;28;20252;-67
2021/04/01 11:07:08;;;;;;;10.30;4.57;;;;;;;;;;5078145;28;20174;-64
2021/04/01 11:09:34;;;;;;;11.48;4.18;;;;;;;;;;5078792;28;20229;-67
2021/04/01 11:14:31;;;;;;;13.50;3.88;;;;;;;;;;5080544;28;20300;-61
2021/04/01 11:16:59;;;;;;;8.55;3.72;;;;;;;;;;5075926;28;20179;-62
2021/04/01 11:19:27;;;;;;;8.00;3.30;;;;;;;;;;5082174;28;20657;-62
2021/04/01 11:21:55;;;;;;;9.00;3.25;;;;;;;;;;5083009;28;20707;-62
2021/04/01 11:24:34;;;;;;;13.85;3.90;;;;;;;;;;5075616;28;20218;-63
2021/04/01 11:27:08;;;;;;;6.70;3.60;;;;;;;;;;5079800;28;20249;-62
2021/04/01 11:29:34;;;;;;;10.77;3.60;;;;;;;;;;5076305;28;20187;-63
2021/04/01 11:32:13;;;;;;;10.23;3.70;;;;;;;;;;5076666;28;20182;-61
2021/04/01 11:34:40;;;;;;;13.27;3.60;;;;;;;;;;5081691;28;20206;-62
2021/04/01 11:37:06;;;;;;;8.13;3.50;;;;;;;;;;5080706;28;20267;-62
2021/04/01 11:39:39;;;;;;;9.52;3.25;;;;;;;;;;5081827;28;20178;-64
2021/04/01 11:42:09;;;;;;;10.23;3.78;;;;;;;;;;5085287;28;20178;-63
2021/04/01 11:44:35;;;;;;;9.25;3.25;;;;;;;;;;5078412;28;20285;-62
2021/04/01 11:47:11;;;;;;;12.32;4.95;;;;;;;;;;5081123;28;20186;-62
2021/04/01 11:49:37;;;;;;;13.77;3.90;;;;;;;;;;5074422;28;20677;-62
2021/04/01 11:52:03;;;;;;;11.70;3.58;;;;;;;;;;5075809;28;20179;-62
2021/04/01 11:54:29;;;;;;;9.45;3.13;;;;;;;;;;5075934;28;20645;-61
2021/04/01 11:56:55;;;;;;;9.27;3.13;;;;;;;;;;5076781;28;20182;-63
2021/04/01 11:59:30;;;;;;;9.30;3.25;;;;;;;;;;5076217;28;20240;-61
2021/04/01 12:02:10;;;;;;;10.88;3.38;;;;;;;;;;5074076;28;20562;-62
2021/04/01 12:04:38;;;;;;;7.10;2.95;;;;;;;;;;5065644;28;20829;-63
2021/04/01 12:07:06;;;;;;;14.02;3.78;;;;;;;;;;5067912;28;20210;-62
2021/04/01 12:09:32;;;;;;;10.95;3.25;;;;;;;;;;5064582;28;20190;-62
2021/04/01 12:11:59;;;;;;;9.40;3.58;;;;;;;;;;5062780;28;20601;-62
2021/04/01 12:14:38;;;;;;;8.48;3.53;;;;;;;;;;5062952;28;20225;-63
2021/04/01 12:17:05;;;;;;;12.80;3.70;;;;;;;;;;5071509;28;20228;-62
2021/04/01 12:19:32;;;;;;;10.77;3.15;;;;;;;;;;5076935;28;20260;-62
2021/04/01 12:22:03;;;;;;;10.07;4.30;;;;;;;;;;5077399;28;20315;-62
2021/04/01 12:24:29;;;;;;;10.45;4.00;;;;;;;;;;5078697;28;20263;-62
2021/04/01 12:26:58;;;;;;;20.25;4.97;;;;;;;;;;5080831;28;20183;-62
2021/04/01 12:29:24;;;;;;;11.60;4.47;;;;;;;;;;5075432;28;20667;-62
2021/04/01 12:31:56;;;;;;;11.05;3.97;;;;;;;;;;5076334;28;20185;-63
2021/04/01 12:34:28;;;;;;;8.57;3.92;;;;;;;;;;5085023;28;20749;-62
2021/04/01 12:36:54;;;;;;;24.98;5.00;;;;;;;;;;5087442;28;20313;-62
2021/04/01 12:39:30;;;;;;;11.98;4.18;;;;;;;;;;5104702;28;20183;-62
2021/04/01 12:41:56;;;;;;;12.60;4.35;;;;;;;;;;5080363;28;20260;-61
2021/04/01 12:44:33;;;;;;;10.60;3.30;;;;;;;;;;5082566;28;20263;-61
2021/04/01 12:46:59;;;;;;;7.18;3.60;;;;;;;;;;5078530;28;20177;-61
2021/04/01 12:49:30;;;;;;;10.30;3.50;;;;;;;;;;5081014;28;20186;-60
2021/04/01 12:52:01;;;;;;;7.25;3.30;;;;;;;;;;5085085;28;20193;-61
2021/04/01 12:54:28;;;;;;;10.60;3.65;;;;;;;;;;5095283;28;20213;-61
2021/04/01 12:57:07;;;;;;;12.20;4.00;;;;;;;;;;5092788;28;20173;-62
2021/04/01 12:59:37;;;;;;;8.77;3.80;;;;;;;;;;5072527;28;20181;-62
2021/04/01 13:02:14;;;;;;;9.82;3.20;;;;;;;;;;5100043;28;20651;-62
2021/04/01 13:04:45;;;;;;;10.05;3.40;;;;;;;;;;5082501;28;20236;-62
2021/04/01 13:12:14;;;;;;;11.63;2.65;;;;;;;;;;5082861;28;20255;-62
2021/04/01 13:14:40;;;;;;;12.95;2.83;;;;;;;;;;5090076;28;20219;-62
2021/04/01 13:17:07;;;;;;;8.45;2.60;;;;;;;;;;5093137;28;20170;-63
2021/04/01 13:19:33;;;;;;;11.40;2.70;;;;;;;;;;5079909;28;20182;-61
2021/04/01 13:24:38;;;;;;;8.73;2.53;;;;;;;;;;5085236;28;20724;-62
2021/04/01 13:27:08;;;;;;;6.05;2.15;;;;;;;;;;5084125;28;20195;-62
2021/04/01 13:29:35;;;;;;;7.97;2.78;;;;;;;;;;5094797;28;20667;-62
2021/04/01 13:32:05;;;;;;;7.45;2.08;;;;;;;;;;5081865;28;20185;-61
2021/04/01 13:34:40;;;;;;;7.97;2.20;;;;;;;;;;5092635;28;20638;-62
2021/04/01 13:39:50;;;;;;;5.05;2.28;;;;;;;;;;5104858;28;20235;-61
2021/04/01 13:42:22;;;;;;;12.98;2.42;;;;;;;;;;5105131;28;20178;-62
2021/04/01 13:44:58;;;;;;;10.10;2.30;;;;;;;;;;5089209;28;20195;-63
2021/04/01 13:47:25;;;;;;;12.02;3.13;;;;;;;;;;5099492;28;20260;-64
2021/04/01 13:49:54;;;;;;;22.83;3.08;;;;;;;;;;5091372;28;20633;-62
2021/04/01 14:11:15;;;;;;;32.00;3.50;;;;;;;;;;5102853;28;20231;-65
2021/04/01 14:13:41;;;;;;;6.80;2.63;;;;;;;;;;5100052;28;20256;-68
2021/04/01 14:16:08;;;;;;;26.40;3.30;;;;;;;;;;5102680;27;20178;-65
2021/04/01 14:18:34;;;;;;;17.08;3.03;;;;;;;;;;5092201;28;20673;-67
2021/04/01 14:21:01;;;;;;;8.52;2.40;;;;;;;;;;5104367;28;20234;-65
2021/04/01 14:23:29;;;;;;;10.60;2.50;;;;;;;;;;5099972;28;20174;-65
2021/04/01 14:25:58;;;;;;;6.63;2.50;;;;;;;;;;5094720;28;20515;-66
2021/04/01 14:28:25;;;;;;;10.05;2.60;;;;;;;;;;5098461;28;20178;-64
2021/04/01 14:30:51;;;;;;;9.07;2.25;;;;;;;;;;5100570;28;20201;-66
2021/04/01 14:33:17;;;;;;;11.18;2.70;;;;;;;;;;5105229;28;20609;-66
2021/04/01 14:35:44;;;;;;;9.40;2.63;;;;;;;;;;5099364;28;20216;-66
2021/04/01 14:38:11;;;;;;;12.80;2.55;;;;;;;;;;5106660;28;20189;-64
2021/04/01 14:40:51;;;;;;;12.93;2.55;;;;;;;;;;5098408;28;20182;-64
2021/04/01 14:43:24;;;;;;;8.77;3.13;;;;;;;;;;5084475;28;20188;-62
2021/04/01 14:45:51;;;;;;;8.10;2.72;;;;;;;;;;5104585;28;20598;-62
2021/04/01 14:48:17;;;;;;;10.15;3.60;;;;;;;;;;5110194;28;20233;-63
2021/04/01 14:50:43;;;;;;;6.88;3.45;;;;;;;;;;5098738;27;20319;-63
2021/04/01 14:53:16;;;;;;;10.80;3.65;;;;;;;;;;5104575;28;20989;-63
2021/04/01 14:55:42;;;;;;;6.28;3.50;;;;;;;;;;5103985;28;20793;-64
2021/04/01 14:58:10;;;;;;;9.43;3.45;;;;;;;;;;5094436;28;20661;-62
2021/04/01 15:00:37;;;;;;;9.90;3.10;;;;;;;;;;5105696;28;20647;-63
2021/04/01 15:03:03;;;;;;;11.27;3.35;;;;;;;;;;5104598;28;20202;-63
2021/04/01 15:05:30;;;;;;;14.80;3.70;;;;;;;;;;5106109;28;20909;-62
2021/04/01 15:07:58;;;;;;;6.53;3.10;;;;;;;;;;5099622;28;20747;-63
2021/04/01 15:10:24;;;;;;;6.32;3.15;;;;;;;;;;5101665;28;20261;-62
2021/04/01 15:12:50;;;;;;;10.88;3.20;;;;;;;;;;5076561;28;20214;-64
2021/04/01 15:15:16;;;;;;;8.27;2.88;;;;;;;;;;5073320;28;20207;-63
2021/04/01 15:17:44;;;;;;;8.13;3.03;;;;;;;;;;5077772;28;20182;-64
2021/04/01 15:20:10;;;;;;;7.40;3.15;;;;;;;;;;5082369;28;20620;-65
2021/04/01 15:22:36;;;;;;;9.55;3.45;;;;;;;;;;5081180;28;20179;-64
2021/04/01 15:25:03;;;;;;;17.75;3.90;;;;;;;;;;5083276;28;20228;-63
2021/04/01 15:27:29;;;;;;;6.95;3.03;;;;;;;;;;5076850;28;20561;-63
2021/04/01 15:29:57;;;;;;;10.65;3.35;;;;;;;;;;5084426;28;20206;-63
2021/04/01 15:32:23;;;;;;;12.40;4.18;;;;;;;;;;5076292;28;20661;-62
2021/04/01 15:34:50;;;;;;;9.60;3.20;;;;;;;;;;5077213;28;20264;-65
2021/04/01 15:37:16;;;;;;;10.55;3.67;;;;;;;;;;5087307;28;20527;-65
2021/04/01 15:39:45;;;;;;;7.68;3.35;;;;;;;;;;5082422;28;20210;-64
2021/04/01 15:42:12;;;;;;;6.88;3.10;;;;;;;;;;5076492;28;20175;-64
2021/04/01 15:44:40;;;;;;;11.65;3.40;;;;;;;;;;5077609;28;20198;-64
2021/04/01 15:47:06;;;;;;;7.55;3.45;;;;;;;;;;5077531;28;20186;-63
2021/04/01 15:49:32;;;;;;;11.10;3.30;;;;;;;;;;5072757;28;20193;-65
2021/04/01 15:51:58;;;;;;;13.10;3.70;;;;;;;;;;5079837;28;20183;-64
2021/04/01 15:54:24;;;;;;;13.13;3.60;;;;;;;;;;5084441;28;20206;-63
2021/04/01 15:56:51;;;;;;;9.02;3.35;;;;;;;;;;5082483;28;20696;-65
2021/04/01 15:59:17;;;;;;;7.03;3.80;;;;;;;;;;5077625;28;20650;-65
2021/04/01 16:01:43;;;;;;;5.97;3.70;;;;;;;;;;5082373;28;20182;-65
2021/04/01 16:04:09;;;;;;;14.43;4.15;;;;;;;;;;5079496;28;20210;-66
2021/04/01 16:06:35;;;;;;;9.48;3.90;;;;;;;;;;5082508;28;20567;-67
2021/04/01 16:09:01;;;;;;;6.32;3.72;;;;;;;;;;5088681;28;20564;-67
2021/04/01 16:11:27;;;;;;;11.82;3.92;;;;;;;;;;5078523;28;20688;-65
2021/04/01 16:13:55;;;;;;;5.63;3.47;;;;;;;;;;5071209;28;20230;-66
2021/04/01 16:16:21;;;;;;;7.63;3.95;;;;;;;;;;5083485;28;20267;-65
2021/04/01 16:18:48;;;;;;;6.93;4.40;;;;;;;;;;5080336;28;20547;-66
2021/04/01 16:21:15;;;;;;;9.98;4.40;;;;;;;;;;5078487;28;20170;-65
2021/04/01 16:23:41;;;;;;;12.43;5.05;;;;;;;;;;5081149;28;20185;-66
2021/04/01 16:26:07;;;;;;;14.95;6.57;;;;;;;;;;5080570;28;20193;-66
2021/04/01 16:28:33;;;;;;;11.15;6.00;;;;;;;;;;5082556;28;20213;-65
2021/04/01 16:31:03;;;;;;;10.95;5.88;;;;;;;;;;5070632;28;20822;-65
2021/04/01 16:33:31;;;;;;;16.27;5.35;;;;;;;;;;5076178;28;20308;-65
2021/04/01 16:35:58;;;;;;;12.40;5.55;;;;;;;;;;5081506;28;20190;-66
2021/04/01 16:38:24;;;;;;;9.82;5.95;;;;;;;;;;5072856;28;20182;-66
2021/04/01 16:40:50;;;;;;;13.35;6.82;;;;;;;;;;5085210;28;20187;-65
2021/04/01 16:43:18;;;;;;;9.77;6.25;;;;;;;;;;5082872;28;20240;-66
2021/04/01 16:45:44;;;;;;;11.95;7.07;;;;;;;;;;5082093;28;20201;-65
2021/04/01 16:48:10;;;;;;;18.35;8.20;;;;;;;;;;5083491;28;20235;-68
2021/04/01 16:50:36;;;;;;;15.77;7.80;;;;;;;;;;5085952;28;20182;-66
2021/04/01 16:53:08;;;;;;;15.77;7.90;;;;;;;;;;5081289;28;20178;-65
2021/04/01 16:55:35;;;;;;;15.93;8.70;;;;;;;;;;5081005;28;20726;-66
2021/04/01 16:58:01;;;;;;;16.75;9.30;;;;;;;;;;5084794;28;20253;-68